createdAt,value
2018-11-22T00:00:13.578Z,0
2018-11-22T00:01:13.865Z,0
2018-11-22T00:02:13.794Z,0
2018-11-22T00:03:13.761Z,0
2018-11-22T00:04:13.754Z,0
2018-11-22T00:05:13.744Z,0
2018-11-22T00:06:13.706Z,0
2018-11-22T00:07:13.418Z,0
2018-11-22T00:08:13.406Z,0
2018-11-22T00:09:13.679Z,0
2018-11-22T00:10:13.362Z,0
2018-11-22T00:11:13.078Z,0
2018-11-22T00:12:13.063Z,0
2018-11-22T00:13:12.759Z,0
2018-11-22T00:14:13.269Z,0
2018-11-22T00:15:13.535Z,0
2018-11-22T00:16:13.240Z,0
2018-11-22T00:17:13.211Z,0
2018-11-22T00:18:12.938Z,0
2018-11-22T00:19:13.173Z,0
2018-11-22T00:20:12.882Z,0
2018-11-22T00:21:13.174Z,0
2018-11-22T00:22:12.853Z,0
2018-11-22T00:23:13.120Z,0
2018-11-22T00:24:13.326Z,0
2018-11-22T00:25:13.049Z,0
2018-11-22T00:26:13.023Z,0
2018-11-22T00:27:13.022Z,0
2018-11-22T00:28:12.973Z,0
2018-11-22T00:29:12.696Z,0
2018-11-22T00:30:12.665Z,0
2018-11-22T00:31:13.178Z,0
2018-11-22T00:32:12.627Z,0
2018-11-22T00:33:12.609Z,0
2018-11-22T00:34:12.846Z,0
2018-11-22T00:35:12.821Z,0
2018-11-22T00:36:12.545Z,0
2018-11-22T00:37:12.775Z,0
2018-11-22T00:38:12.225Z,0
2018-11-22T00:39:12.495Z,0
2018-11-22T00:40:12.994Z,0
2018-11-22T00:41:12.691Z,0
2018-11-22T00:42:11.922Z,0
2018-11-22T00:43:12.915Z,0
2018-11-22T00:44:12.637Z,0
2018-11-22T00:45:12.900Z,0
2018-11-22T00:46:12.854Z,0
2018-11-22T00:47:13.582Z,0
2018-11-22T00:48:12.609Z,0
2018-11-22T00:49:12.534Z,0
2018-11-22T00:50:12.507Z,0
2018-11-22T00:51:12.216Z,0
2018-11-22T00:52:12.722Z,0
2018-11-22T00:53:12.187Z,0
2018-11-22T00:54:12.160Z,0
2018-11-22T00:55:12.398Z,0
2018-11-22T00:56:12.382Z,0
2018-11-22T00:57:12.109Z,0
2018-11-22T00:58:12.355Z,0
2018-11-22T00:59:12.314Z,0
2018-11-22T01:00:12.295Z,0
2018-11-22T01:01:12.270Z,0
2018-11-22T01:02:12.255Z,0
2018-11-22T01:03:12.497Z,0
2018-11-22T01:04:11.942Z,0
2018-11-22T01:05:12.459Z,0
2018-11-22T01:06:12.371Z,0
2018-11-22T01:07:12.146Z,0
2018-11-22T01:08:12.167Z,0
2018-11-22T01:09:11.856Z,0
2018-11-22T01:10:12.083Z,0
2018-11-22T01:11:12.067Z,0
2018-11-22T01:12:11.776Z,0
2018-11-22T01:13:12.284Z,0
2018-11-22T01:14:11.732Z,0
2018-11-22T01:15:11.975Z,0
2018-11-22T01:16:11.427Z,0
2018-11-22T01:17:12.198Z,0
2018-11-22T01:18:11.383Z,0
2018-11-22T01:19:11.638Z,0
2018-11-22T01:20:12.142Z,0
2018-11-22T01:21:12.134Z,0
2018-11-22T01:22:11.315Z,0
2018-11-22T01:23:12.070Z,0
2018-11-22T01:24:11.580Z,0
2018-11-22T01:25:11.506Z,0
2018-11-22T01:26:12.008Z,0
2018-11-22T01:27:11.720Z,0
2018-11-22T01:28:11.723Z,0
2018-11-22T01:29:11.671Z,0
2018-11-22T01:30:11.434Z,0
2018-11-22T01:31:11.641Z,0
2018-11-22T01:32:11.628Z,0
2018-11-22T01:33:11.591Z,0
2018-11-22T01:34:11.308Z,0
2018-11-22T01:35:11.570Z,0
2018-11-22T01:36:11.810Z,0
2018-11-22T01:37:11.504Z,0
2018-11-22T01:38:11.240Z,0
2018-11-22T01:39:11.249Z,0
2018-11-22T01:40:11.707Z,0
2018-11-22T01:41:11.694Z,0
2018-11-22T01:42:11.147Z,0
2018-11-22T01:43:11.128Z,0
2018-11-22T01:44:11.098Z,0
2018-11-22T01:45:11.076Z,0
2018-11-22T01:46:11.605Z,0
2018-11-22T01:47:11.047Z,0
2018-11-22T01:48:11.051Z,0
2018-11-22T01:49:10.986Z,0
2018-11-22T01:50:11.518Z,0
2018-11-22T01:51:10.960Z,0
2018-11-22T01:52:11.189Z,0
2018-11-22T01:53:11.441Z,0
2018-11-22T01:54:11.150Z,0
2018-11-22T01:55:11.142Z,0
2018-11-22T01:56:11.127Z,0
2018-11-22T01:57:10.831Z,0
2018-11-22T01:58:10.805Z,0
2018-11-22T01:59:10.779Z,0
2018-11-22T02:00:10.757Z,0
2018-11-22T02:01:10.996Z,0
2018-11-22T02:02:10.720Z,0
2018-11-22T02:03:10.998Z,0
2018-11-22T02:04:10.667Z,0
2018-11-22T02:05:10.916Z,0
2018-11-22T02:06:11.165Z,0
2018-11-22T02:07:10.867Z,0
2018-11-22T02:08:10.860Z,0
2018-11-22T02:09:10.571Z,0
2018-11-22T02:10:10.813Z,0
2018-11-22T02:11:10.541Z,0
2018-11-22T02:12:11.033Z,0
2018-11-22T02:13:10.225Z,0
2018-11-22T02:14:10.468Z,0
2018-11-22T02:15:10.435Z,0
2018-11-22T02:16:10.692Z,0
2018-11-22T02:17:10.145Z,0
2018-11-22T02:18:10.639Z,0
2018-11-22T02:19:10.621Z,0
2018-11-22T02:20:10.602Z,0
2018-11-22T02:21:10.316Z,0
2018-11-22T02:22:10.306Z,0
2018-11-22T02:23:10.016Z,0
2018-11-22T02:24:10.000Z,0
2018-11-22T02:25:10.288Z,0
2018-11-22T02:26:10.469Z,0
2018-11-22T02:27:10.470Z,0
2018-11-22T02:28:10.438Z,0
2018-11-22T02:29:10.689Z,0
2018-11-22T02:30:10.154Z,0
2018-11-22T02:31:10.381Z,0
2018-11-22T02:32:10.361Z,0
2018-11-22T02:33:10.061Z,0
2018-11-22T02:34:10.308Z,0
2018-11-22T02:35:10.553Z,0
2018-11-22T02:36:10.259Z,0
2018-11-22T02:37:10.260Z,0
2018-11-22T02:38:10.240Z,0
2018-11-22T02:39:10.453Z,0
2018-11-22T02:40:10.447Z,0
2018-11-22T02:41:10.416Z,0
2018-11-22T02:42:09.866Z,0
2018-11-22T02:43:10.388Z,0
2018-11-22T02:44:10.092Z,0
2018-11-22T02:45:09.820Z,0
2018-11-22T02:46:10.311Z,0
2018-11-22T02:47:10.307Z,0
2018-11-22T02:48:09.488Z,0
2018-11-22T02:49:09.787Z,0
2018-11-22T02:50:10.240Z,0
2018-11-22T02:51:09.690Z,0
2018-11-22T02:52:09.415Z,0
2018-11-22T02:53:09.908Z,0
2018-11-22T02:54:10.154Z,0
2018-11-22T02:55:09.936Z,0
2018-11-22T02:56:09.311Z,0
2018-11-22T02:57:09.855Z,0
2018-11-22T02:58:09.803Z,0
2018-11-22T02:59:09.795Z,0
2018-11-22T03:00:09.269Z,0
2018-11-22T03:01:09.796Z,0
2018-11-22T03:02:09.699Z,0
2018-11-22T03:03:09.987Z,0
2018-11-22T03:04:09.442Z,0
2018-11-22T03:05:09.131Z,0
2018-11-22T03:06:09.357Z,0
2018-11-22T03:07:09.562Z,0
2018-11-22T03:08:09.850Z,0
2018-11-22T03:09:09.304Z,0
2018-11-22T03:10:09.802Z,0
2018-11-22T03:11:09.285Z,0
2018-11-22T03:12:09.238Z,0
2018-11-22T03:13:09.747Z,0
2018-11-22T03:14:09.467Z,0
2018-11-22T03:15:09.696Z,0
2018-11-22T03:16:09.448Z,0
2018-11-22T03:17:09.135Z,0
2018-11-22T03:18:09.140Z,0
2018-11-22T03:19:09.092Z,0
2018-11-22T03:20:09.595Z,0
2018-11-22T03:21:09.052Z,0
2018-11-22T03:22:08.756Z,0
2018-11-22T03:23:09.012Z,0
2018-11-22T03:24:08.985Z,0
2018-11-22T03:25:09.505Z,0
2018-11-22T03:26:09.480Z,0
2018-11-22T03:27:09.196Z,0
2018-11-22T03:28:09.421Z,0
2018-11-22T03:29:09.136Z,0
2018-11-22T03:30:09.385Z,0
2018-11-22T03:31:09.121Z,0
2018-11-22T03:32:09.104Z,0
2018-11-22T03:33:08.534Z,0
2018-11-22T03:34:09.305Z,0
2018-11-22T03:35:08.803Z,0
2018-11-22T03:36:08.743Z,0
2018-11-22T03:37:08.453Z,0
2018-11-22T03:38:08.946Z,0
2018-11-22T03:39:09.208Z,0
2018-11-22T03:40:08.412Z,0
2018-11-22T03:41:09.162Z,0
2018-11-22T03:42:08.599Z,0
2018-11-22T03:43:08.840Z,0
2018-11-22T03:44:09.096Z,0
2018-11-22T03:45:08.538Z,0
2018-11-22T03:46:08.247Z,0
2018-11-22T03:47:08.756Z,0
2018-11-22T03:48:08.741Z,0
2018-11-22T03:49:08.975Z,0
2018-11-22T03:50:08.952Z,0
2018-11-22T03:51:08.955Z,0
2018-11-22T03:52:08.661Z,0
2018-11-22T03:53:08.360Z,0
2018-11-22T03:54:08.347Z,0
2018-11-22T03:55:08.601Z,0
2018-11-22T03:56:08.304Z,0
2018-11-22T03:57:08.546Z,0
2018-11-22T03:58:08.263Z,0
2018-11-22T03:59:08.499Z,0
2018-11-22T04:00:08.220Z,0
2018-11-22T04:01:08.474Z,0
2018-11-22T04:02:08.185Z,0
2018-11-22T04:03:08.434Z,0
2018-11-22T04:04:08.137Z,0
2018-11-22T04:05:07.862Z,0
2018-11-22T04:06:08.079Z,0
2018-11-22T04:07:08.596Z,0
2018-11-22T04:08:08.051Z,0
2018-11-22T04:09:07.754Z,0
2018-11-22T04:10:08.546Z,0
2018-11-22T04:11:08.249Z,0
2018-11-22T04:12:08.485Z,0
2018-11-22T04:13:07.952Z,0
2018-11-22T04:14:08.448Z,0
2018-11-22T04:15:08.435Z,0
2018-11-22T04:16:08.417Z,0
2018-11-22T04:17:08.391Z,0
2018-11-22T04:18:07.831Z,0
2018-11-22T04:19:07.814Z,0
2018-11-22T04:20:08.326Z,0
2018-11-22T04:21:08.312Z,0
2018-11-22T04:22:08.278Z,0
2018-11-22T04:23:07.458Z,0
2018-11-22T04:24:07.976Z,0
2018-11-22T04:25:08.269Z,0
2018-11-22T04:26:07.930Z,0
2018-11-22T04:27:07.661Z,0
2018-11-22T04:28:07.634Z,0
2018-11-22T04:29:07.893Z,0
2018-11-22T04:30:07.860Z,0
2018-11-22T04:31:07.571Z,0
2018-11-22T04:32:07.873Z,0
2018-11-22T04:33:07.535Z,0
2018-11-22T04:34:08.025Z,0
2018-11-22T04:35:07.732Z,0
2018-11-22T04:36:07.190Z,0
2018-11-22T04:37:08.024Z,0
2018-11-22T04:38:07.147Z,0
2018-11-22T04:39:07.649Z,0
2018-11-22T04:40:07.417Z,0
2018-11-22T04:41:07.348Z,0
2018-11-22T04:42:07.607Z,0
2018-11-22T04:43:07.303Z,0
2018-11-22T04:44:07.557Z,0
2018-11-22T04:45:06.991Z,0
2018-11-22T04:46:07.498Z,0
2018-11-22T04:47:07.486Z,0
2018-11-22T04:48:07.197Z,0
2018-11-22T04:49:07.173Z,0
2018-11-22T04:50:07.193Z,0
2018-11-22T04:51:07.653Z,0
2018-11-22T04:52:07.147Z,0
2018-11-22T04:53:07.091Z,0
2018-11-22T04:54:06.826Z,0
2018-11-22T04:55:07.336Z,0
2018-11-22T04:56:07.021Z,0
2018-11-22T04:57:07.519Z,0
2018-11-22T04:58:06.983Z,0
2018-11-22T04:59:07.228Z,0
2018-11-22T05:00:06.989Z,0
2018-11-22T05:01:07.444Z,0
2018-11-22T05:02:07.179Z,0
2018-11-22T05:03:07.141Z,0
2018-11-22T05:04:06.853Z,0
2018-11-22T05:05:06.572Z,0
2018-11-22T05:06:07.075Z,0
2018-11-22T05:07:06.998Z,0
2018-11-22T05:08:07.037Z,0
2018-11-22T05:09:07.023Z,0
2018-11-22T05:10:06.999Z,0
2018-11-22T05:11:06.707Z,0
2018-11-22T05:12:06.953Z,0
2018-11-22T05:13:06.923Z,0
2018-11-22T05:14:06.904Z,0
2018-11-22T05:15:06.877Z,0
2018-11-22T05:16:06.861Z,0
2018-11-22T05:17:07.105Z,0
2018-11-22T05:18:06.846Z,0
2018-11-22T05:19:06.523Z,0
2018-11-22T05:20:06.820Z,0
2018-11-22T05:21:06.486Z,0
2018-11-22T05:22:06.460Z,0
2018-11-22T05:23:06.186Z,0
2018-11-22T05:24:06.432Z,0
2018-11-22T05:25:06.392Z,0
2018-11-22T05:26:06.923Z,0
2018-11-22T05:27:06.885Z,0
2018-11-22T05:28:06.598Z,0
2018-11-22T05:29:12.349Z,0
2018-11-22T05:30:06.300Z,0
2018-11-22T05:31:06.274Z,0
2018-11-22T05:32:06.538Z,0
2018-11-22T05:33:06.228Z,0
2018-11-22T05:34:06.885Z,0
2018-11-22T05:35:06.194Z,0
2018-11-22T05:36:06.431Z,0
2018-11-22T05:37:06.141Z,0
2018-11-22T05:38:06.672Z,0
2018-11-22T05:39:06.638Z,0
2018-11-22T05:40:06.609Z,0
2018-11-22T05:41:06.322Z,0
2018-11-22T05:42:06.560Z,0
2018-11-22T05:43:06.300Z,0
2018-11-22T05:44:06.251Z,0
2018-11-22T05:45:06.234Z,0
2018-11-22T05:46:05.950Z,0
2018-11-22T05:47:07.533Z,0
2018-11-22T05:48:05.910Z,0
2018-11-22T05:49:05.884Z,0
2018-11-22T05:50:05.878Z,0
2018-11-22T05:51:06.115Z,0
2018-11-22T05:52:06.086Z,0
2018-11-22T05:53:05.801Z,0
2018-11-22T05:54:06.330Z,0
2018-11-22T05:55:06.301Z,0
2018-11-22T05:56:06.009Z,0
2018-11-22T05:57:06.005Z,0
2018-11-22T05:58:05.989Z,0
2018-11-22T05:59:05.958Z,0
2018-11-22T06:00:06.179Z,0
2018-11-22T06:01:05.634Z,0
2018-11-22T06:02:05.869Z,0
2018-11-22T06:03:05.887Z,0
2018-11-22T06:04:06.088Z,0
2018-11-22T06:05:05.569Z,0
2018-11-22T06:06:05.795Z,0
2018-11-22T06:07:05.235Z,0
2018-11-22T06:08:05.762Z,0
2018-11-22T06:09:05.772Z,0
2018-11-22T06:10:05.964Z,0
2018-11-22T06:11:05.684Z,0
2018-11-22T06:12:05.418Z,0
2018-11-22T06:13:05.647Z,0
2018-11-22T06:14:05.084Z,0
2018-11-22T06:15:05.335Z,0
2018-11-22T06:16:05.321Z,0
2018-11-22T06:17:05.825Z,0
2018-11-22T06:18:05.566Z,0
2018-11-22T06:19:05.807Z,0
2018-11-22T06:20:05.743Z,0
2018-11-22T06:21:05.775Z,0
2018-11-22T06:22:05.456Z,0
2018-11-22T06:23:05.420Z,0
2018-11-22T06:24:05.394Z,0
2018-11-22T06:25:10.369Z,0
2018-11-22T06:26:05.096Z,0
2018-11-22T06:27:05.607Z,0
2018-11-22T06:28:04.793Z,0
2018-11-22T06:29:05.303Z,0
2018-11-22T06:30:04.761Z,0
2018-11-22T06:31:08.882Z,0
2018-11-22T06:32:05.226Z,0
2018-11-22T06:33:05.216Z,0
2018-11-22T06:34:04.916Z,0
2018-11-22T06:35:05.777Z,0
2018-11-22T06:36:04.616Z,0
2018-11-22T06:37:04.861Z,0
2018-11-22T06:38:04.843Z,0
2018-11-22T06:39:05.081Z,0
2018-11-22T06:40:05.061Z,0
2018-11-22T06:41:04.793Z,0
2018-11-22T06:42:04.504Z,0
2018-11-22T06:43:05.300Z,0
2018-11-22T06:44:05.230Z,0
2018-11-22T06:45:04.958Z,0
2018-11-22T06:46:04.663Z,0
2018-11-22T06:47:04.643Z,0
2018-11-22T06:48:04.899Z,0
2018-11-22T06:49:05.144Z,0
2018-11-22T06:50:04.585Z,0
2018-11-22T06:51:05.534Z,0
2018-11-22T06:52:04.287Z,0
2018-11-22T06:53:04.806Z,0
2018-11-22T06:54:05.032Z,0
2018-11-22T06:55:04.744Z,0
2018-11-22T06:56:04.189Z,0
2018-11-22T06:57:04.168Z,0
2018-11-22T06:58:04.988Z,0
2018-11-22T06:59:04.913Z,0
2018-11-22T07:00:04.903Z,0
2018-11-22T07:01:04.092Z,0
2018-11-22T07:02:04.858Z,0
2018-11-22T07:03:04.049Z,0
2018-11-22T07:04:04.549Z,0
2018-11-22T07:05:04.524Z,0
2018-11-22T07:06:04.243Z,0
2018-11-22T07:07:04.151Z,0
2018-11-22T07:08:04.743Z,0
2018-11-22T07:09:04.439Z,0
2018-11-22T07:10:04.418Z,0
2018-11-22T07:11:04.124Z,0
2018-11-22T07:12:04.391Z,0
2018-11-22T07:13:04.364Z,0
2018-11-22T07:14:04.331Z,0
2018-11-22T07:15:04.576Z,0
2018-11-22T07:16:04.040Z,0
2018-11-22T07:17:04.536Z,0
2018-11-22T07:18:03.982Z,0
2018-11-22T07:19:04.269Z,0
2018-11-22T07:20:04.471Z,0
2018-11-22T07:21:04.180Z,5
2018-11-22T07:22:04.146Z,5
2018-11-22T07:23:04.140Z,5
2018-11-22T07:24:04.193Z,5
2018-11-22T07:25:04.099Z,5
2018-11-22T07:26:03.555Z,5
2018-11-22T07:27:04.048Z,5
2018-11-22T07:28:04.039Z,5
2018-11-22T07:29:04.018Z,5
2018-11-22T07:30:03.719Z,5
2018-11-22T07:31:03.976Z,5
2018-11-22T07:32:03.695Z,5
2018-11-22T07:33:03.668Z,5
2018-11-22T07:34:03.671Z,5
2018-11-22T07:35:03.625Z,5
2018-11-22T07:36:04.122Z,10
2018-11-22T07:37:03.588Z,10
2018-11-22T07:38:04.139Z,5
2018-11-22T07:39:03.605Z,5
2018-11-22T07:40:03.525Z,5
2018-11-22T07:41:03.761Z,5
2018-11-22T07:42:03.749Z,5
2018-11-22T07:43:03.723Z,10
2018-11-22T07:44:03.428Z,10
2018-11-22T07:45:03.668Z,10
2018-11-22T07:46:03.384Z,10
2018-11-22T07:47:03.396Z,10
2018-11-22T07:48:03.871Z,10
2018-11-22T07:49:03.598Z,10
2018-11-22T07:50:03.037Z,10
2018-11-22T07:51:03.289Z,10
2018-11-22T07:52:03.521Z,10
2018-11-22T07:53:05.153Z,10
2018-11-22T07:54:03.741Z,10
2018-11-22T07:55:03.725Z,10
2018-11-22T07:56:03.175Z,10
2018-11-22T07:57:03.152Z,15
2018-11-22T07:58:03.130Z,15
2018-11-22T07:59:03.395Z,15
2018-11-22T08:00:03.627Z,15
2018-11-22T08:01:03.333Z,15
2018-11-22T08:02:03.041Z,15
2018-11-22T08:03:03.281Z,15
2018-11-22T08:04:03.267Z,15
2018-11-22T08:05:03.031Z,15
2018-11-22T08:06:02.956Z,15
2018-11-22T08:07:02.680Z,15
2018-11-22T08:08:02.926Z,15
2018-11-22T08:09:03.234Z,15
2018-11-22T08:10:03.411Z,15
2018-11-22T08:11:02.857Z,20
2018-11-22T08:12:03.372Z,20
2018-11-22T08:13:03.350Z,20
2018-11-22T08:14:03.329Z,20
2018-11-22T08:15:03.308Z,20
2018-11-22T08:16:03.009Z,20
2018-11-22T08:17:03.249Z,20
2018-11-22T08:18:02.723Z,20
2018-11-22T08:19:03.238Z,20
2018-11-22T08:20:03.205Z,20
2018-11-22T08:21:09.141Z,20
2018-11-22T08:22:02.882Z,15
2018-11-22T08:23:02.873Z,15
2018-11-22T08:24:02.318Z,15
2018-11-22T08:25:02.295Z,20
2018-11-22T08:26:02.536Z,20
2018-11-22T08:27:02.517Z,15
2018-11-22T08:28:02.757Z,15
2018-11-22T08:29:02.468Z,15
2018-11-22T08:30:02.485Z,20
2018-11-22T08:31:02.159Z,20
2018-11-22T08:32:02.424Z,20
2018-11-22T08:33:02.388Z,20
2018-11-22T08:34:02.904Z,20
2018-11-22T08:35:02.342Z,20
2018-11-22T08:36:02.869Z,20
2018-11-22T08:37:02.826Z,20
2018-11-22T08:38:02.544Z,20
2018-11-22T08:39:01.994Z,20
2018-11-22T08:40:02.513Z,20
2018-11-22T08:41:01.688Z,20
2018-11-22T08:42:02.205Z,20
2018-11-22T08:43:04.898Z,20
2018-11-22T08:44:02.690Z,20
2018-11-22T08:45:02.151Z,20
2018-11-22T08:46:02.374Z,25
2018-11-22T08:47:01.816Z,25
2018-11-22T08:48:02.371Z,25
2018-11-22T08:49:02.058Z,25
2018-11-22T08:50:02.347Z,25
2018-11-22T08:51:02.530Z,30
2018-11-22T08:52:01.451Z,30
2018-11-22T08:53:02.231Z,30
2018-11-22T08:54:01.938Z,30
2018-11-22T08:55:01.916Z,35
2018-11-22T08:56:02.428Z,35
2018-11-22T08:57:02.423Z,35
2018-11-22T08:58:01.857Z,35
2018-11-22T08:59:02.094Z,35
2018-11-22T09:00:02.074Z,35
2018-11-22T09:01:01.785Z,40
2018-11-22T09:02:01.773Z,45
2018-11-22T09:03:01.749Z,45
2018-11-22T09:04:02.278Z,45
2018-11-22T09:05:01.994Z,45
2018-11-22T09:06:01.958Z,40
2018-11-22T09:07:01.628Z,40
2018-11-22T09:08:02.181Z,40
2018-11-22T09:09:02.478Z,40
2018-11-22T09:10:07.112Z,45
2018-11-22T09:11:02.115Z,45
2018-11-22T09:12:01.873Z,45
2018-11-22T09:13:01.557Z,45
2018-11-22T09:14:01.793Z,45
2018-11-22T09:15:01.768Z,40
2018-11-22T09:16:01.747Z,40
2018-11-22T09:17:01.725Z,40
2018-11-22T09:18:01.706Z,40
2018-11-22T09:19:01.427Z,40
2018-11-22T09:20:01.678Z,40
2018-11-22T09:21:01.953Z,40
2018-11-22T09:22:01.372Z,40
2018-11-22T09:23:01.856Z,40
2018-11-22T09:24:01.856Z,40
2018-11-22T09:25:01.843Z,45
2018-11-22T09:26:01.535Z,45
2018-11-22T09:27:01.527Z,45
2018-11-22T09:28:01.764Z,45
2018-11-22T09:29:01.774Z,45
2018-11-22T09:30:01.205Z,45
2018-11-22T09:31:01.229Z,45
2018-11-22T09:32:01.413Z,45
2018-11-22T09:33:00.891Z,45
2018-11-22T09:34:01.636Z,45
2018-11-22T09:35:01.143Z,45
2018-11-22T09:36:01.601Z,45
2018-11-22T09:37:01.052Z,45
2018-11-22T09:38:01.040Z,45
2018-11-22T09:39:01.528Z,45
2018-11-22T09:40:01.026Z,45
2018-11-22T09:41:01.477Z,45
2018-11-22T09:42:01.203Z,40
2018-11-22T09:43:01.186Z,40
2018-11-22T09:44:01.415Z,40
2018-11-22T09:45:00.931Z,40
2018-11-22T09:46:00.869Z,40
2018-11-22T09:47:00.853Z,40
2018-11-22T09:48:01.093Z,45
2018-11-22T09:49:01.067Z,45
2018-11-22T09:50:00.817Z,45
2018-11-22T09:51:01.869Z,45
2018-11-22T09:52:00.735Z,45
2018-11-22T09:53:00.973Z,45
2018-11-22T09:54:00.701Z,45
2018-11-22T09:55:00.673Z,45
2018-11-22T09:56:00.909Z,45
2018-11-22T09:57:00.370Z,45
2018-11-22T09:58:01.810Z,45
2018-11-22T09:59:00.970Z,45
2018-11-22T10:00:00.590Z,45
2018-11-22T10:01:00.307Z,45
2018-11-22T10:02:00.536Z,50
2018-11-22T10:03:00.771Z,50
2018-11-22T10:04:00.498Z,50
2018-11-22T10:05:02.275Z,50
2018-11-22T10:06:01.340Z,50
2018-11-22T10:07:00.688Z,45
2018-11-22T10:08:00.670Z,45
2018-11-22T10:09:00.918Z,50
2018-11-22T10:10:00.374Z,55
2018-11-22T10:11:00.604Z,50
2018-11-22T10:12:00.586Z,50
2018-11-22T10:13:00.310Z,50
2018-11-22T10:14:00.577Z,50
2018-11-22T10:15:00.273Z,50
2018-11-22T10:16:00.508Z,50
2018-11-22T10:17:00.991Z,50
2018-11-22T10:18:00.203Z,50
2018-11-22T10:18:59.995Z,50
2018-11-22T10:20:00.416Z,50
2018-11-22T10:21:00.407Z,50
2018-11-22T10:22:00.375Z,50
2018-11-22T10:23:00.379Z,50
2018-11-22T10:24:01.214Z,50
2018-11-22T10:24:59.811Z,50
2018-11-22T10:26:00.556Z,50
2018-11-22T10:27:00.523Z,50
2018-11-22T10:28:00.262Z,50
2018-11-22T10:29:00.227Z,50
2018-11-22T10:30:00.246Z,50
2018-11-22T10:31:00.193Z,50
2018-11-22T10:32:00.372Z,50
2018-11-22T10:32:59.982Z,50
2018-11-22T10:34:00.450Z,45
2018-11-22T10:35:00.375Z,40
2018-11-22T10:36:00.116Z,40
2018-11-22T10:36:59.831Z,40
2018-11-22T10:38:01.169Z,40
2018-11-22T10:38:59.821Z,40
2018-11-22T10:39:59.759Z,40
2018-11-22T10:41:00.258Z,40
2018-11-22T10:42:00.243Z,40
2018-11-22T10:43:00.203Z,40
2018-11-22T10:43:59.938Z,35
2018-11-22T10:45:00.169Z,35
2018-11-22T10:45:59.898Z,40
2018-11-22T10:46:59.869Z,40
2018-11-22T10:47:59.890Z,45
2018-11-22T10:48:59.577Z,45
2018-11-22T10:50:01.102Z,50
2018-11-22T10:50:59.807Z,50
2018-11-22T10:52:00.036Z,45
2018-11-22T10:52:59.995Z,50
2018-11-22T10:53:59.719Z,50
2018-11-22T10:54:59.959Z,50
2018-11-22T10:55:59.743Z,50
2018-11-22T10:56:59.690Z,50
2018-11-22T10:58:03.129Z,50
2018-11-22T10:58:59.649Z,50
2018-11-22T10:59:59.115Z,50
2018-11-22T11:00:59.461Z,50
2018-11-22T11:01:59.308Z,50
2018-11-22T11:02:59.284Z,55
2018-11-22T11:03:59.795Z,50
2018-11-22T11:04:59.513Z,50
2018-11-22T11:05:58.987Z,50
2018-11-22T11:06:59.209Z,50
2018-11-22T11:07:59.446Z,50
2018-11-22T11:08:59.667Z,50
2018-11-22T11:09:59.657Z,50
2018-11-22T11:10:59.389Z,50
2018-11-22T11:11:59.376Z,50
2018-11-22T11:12:59.090Z,50
2018-11-22T11:13:59.323Z,50
2018-11-22T11:14:58.832Z,50
2018-11-22T11:15:59.549Z,50
2018-11-22T11:16:59.512Z,50
2018-11-22T11:17:59.500Z,50
2018-11-22T11:18:59.000Z,55
2018-11-22T11:19:58.953Z,55
2018-11-22T11:20:58.421Z,55
2018-11-22T11:21:59.163Z,55
2018-11-22T11:22:58.887Z,55
2018-11-22T11:23:59.126Z,55
2018-11-22T11:24:59.184Z,55
2018-11-22T11:25:59.075Z,60
2018-11-22T11:26:59.397Z,60
2018-11-22T11:27:58.791Z,60
2018-11-22T11:28:58.515Z,60
2018-11-22T11:29:58.487Z,55
2018-11-22T11:30:58.729Z,55
2018-11-22T11:31:58.710Z,55
2018-11-22T11:32:58.939Z,55
2018-11-22T11:33:59.171Z,60
2018-11-22T11:34:58.645Z,60
2018-11-22T11:35:58.875Z,60
2018-11-22T11:36:58.600Z,70
2018-11-22T11:37:59.114Z,65
2018-11-22T11:38:58.814Z,70
2018-11-22T11:40:05.012Z,70
2018-11-22T11:40:59.028Z,70
2018-11-22T11:41:58.497Z,70
2018-11-22T11:42:58.741Z,70
2018-11-22T11:43:58.731Z,70
2018-11-22T11:44:58.948Z,70
2018-11-22T11:45:58.415Z,70
2018-11-22T11:46:58.415Z,70
2018-11-22T11:47:58.394Z,70
2018-11-22T11:48:58.563Z,70
2018-11-22T11:49:58.630Z,70
2018-11-22T11:50:58.586Z,70
2018-11-22T11:51:58.301Z,70
2018-11-22T11:52:58.537Z,75
2018-11-22T11:53:58.779Z,75
2018-11-22T11:54:58.238Z,80
2018-11-22T11:55:58.757Z,80
2018-11-22T11:56:58.457Z,75
2018-11-22T11:57:58.180Z,75
2018-11-22T11:58:58.413Z,75
2018-11-22T11:59:58.414Z,75
2018-11-22T12:00:57.895Z,70
2018-11-22T12:01:58.377Z,70
2018-11-22T12:02:58.082Z,75
2018-11-22T12:03:58.589Z,75
2018-11-22T12:04:58.319Z,70
2018-11-22T12:05:58.530Z,70
2018-11-22T12:06:58.518Z,75
2018-11-22T12:07:57.729Z,80
2018-11-22T12:08:57.954Z,80
2018-11-22T12:10:03.071Z,80
2018-11-22T12:10:58.176Z,80
2018-11-22T12:11:57.909Z,80
2018-11-22T12:12:58.139Z,80
2018-11-22T12:13:58.142Z,75
2018-11-22T12:14:58.133Z,75
2018-11-22T12:15:57.535Z,80
2018-11-22T12:16:57.555Z,85
2018-11-22T12:17:57.536Z,85
2018-11-22T12:18:57.760Z,85
2018-11-22T12:19:59.418Z,80
2018-11-22T12:20:57.464Z,80
2018-11-22T12:21:57.955Z,80
2018-11-22T12:22:58.202Z,75
2018-11-22T12:23:58.175Z,70
2018-11-22T12:24:57.921Z,70
2018-11-22T12:25:57.885Z,75
2018-11-22T12:26:57.615Z,65
2018-11-22T12:27:58.112Z,70
2018-11-22T12:28:57.826Z,70
2018-11-22T12:29:57.807Z,65
2018-11-22T12:30:57.540Z,65
2018-11-22T12:31:57.957Z,65
2018-11-22T12:32:57.745Z,65
2018-11-22T12:33:57.742Z,70
2018-11-22T12:34:57.715Z,65
2018-11-22T12:35:57.693Z,65
2018-11-22T12:36:57.938Z,65
2018-11-22T12:37:57.653Z,65
2018-11-22T12:38:57.389Z,60
2018-11-22T12:39:57.368Z,60
2018-11-22T12:40:57.882Z,60
2018-11-22T12:41:57.586Z,65
2018-11-22T12:42:57.290Z,65
2018-11-22T12:43:57.525Z,60
2018-11-22T12:44:57.779Z,65
2018-11-22T12:45:58.188Z,70
2018-11-22T12:46:57.231Z,70
2018-11-22T12:47:57.503Z,65
2018-11-22T12:48:57.445Z,65
2018-11-22T12:49:57.418Z,55
2018-11-22T12:50:57.387Z,55
2018-11-22T12:51:57.377Z,50
2018-11-22T12:52:57.613Z,50
2018-11-22T12:53:57.340Z,50
2018-11-22T12:54:57.349Z,45
2018-11-22T12:55:57.034Z,45
2018-11-22T12:56:56.764Z,45
2018-11-22T12:57:57.260Z,45
2018-11-22T12:58:56.989Z,45
2018-11-22T12:59:57.213Z,45
2018-11-22T13:00:56.690Z,45
2018-11-22T13:01:57.349Z,40
2018-11-22T13:02:57.160Z,35
2018-11-22T13:03:57.135Z,35
2018-11-22T13:04:57.160Z,30
2018-11-22T13:05:56.843Z,30
2018-11-22T13:06:56.818Z,30
2018-11-22T13:07:57.277Z,25
2018-11-22T13:08:57.075Z,25
2018-11-22T13:09:56.760Z,20
2018-11-22T13:10:57.253Z,20
2018-11-22T13:11:56.663Z,20
2018-11-22T13:12:57.223Z,20
2018-11-22T13:13:56.941Z,20
2018-11-22T13:14:56.918Z,20
2018-11-22T13:15:56.926Z,20
2018-11-22T13:16:56.890Z,20
2018-11-22T13:17:56.353Z,20
2018-11-22T13:19:01.740Z,20
2018-11-22T13:19:56.832Z,25
2018-11-22T13:20:57.071Z,25
2018-11-22T13:21:56.787Z,25
2018-11-22T13:22:56.757Z,25
2018-11-22T13:23:56.480Z,25
2018-11-22T13:24:56.468Z,25
2018-11-22T13:25:56.471Z,20
2018-11-22T13:26:57.115Z,15
2018-11-22T13:27:56.157Z,20
2018-11-22T13:28:56.640Z,20
2018-11-22T13:29:56.642Z,20
2018-11-22T13:30:56.858Z,20
2018-11-22T13:31:56.099Z,20
2018-11-22T13:32:56.090Z,20
2018-11-22T13:33:56.548Z,20
2018-11-22T13:34:56.549Z,20
2018-11-22T13:35:56.753Z,20
2018-11-22T13:36:56.237Z,25
2018-11-22T13:37:56.727Z,30
2018-11-22T13:38:56.189Z,25
2018-11-22T13:39:56.680Z,25
2018-11-22T13:40:56.408Z,25
2018-11-22T13:41:56.742Z,20
2018-11-22T13:42:56.429Z,20
2018-11-22T13:43:56.384Z,20
2018-11-22T13:44:56.637Z,20
2018-11-22T13:45:56.570Z,15
2018-11-22T13:46:56.358Z,15
2018-11-22T13:47:56.038Z,15
2018-11-22T13:48:55.763Z,15
2018-11-22T13:49:56.287Z,15
2018-11-22T13:50:56.251Z,15
2018-11-22T13:51:56.470Z,15
2018-11-22T13:52:55.925Z,15
2018-11-22T13:53:56.390Z,15
2018-11-22T13:54:55.699Z,15
2018-11-22T13:55:56.130Z,20
2018-11-22T13:56:56.035Z,20
2018-11-22T13:57:56.066Z,20
2018-11-22T13:58:56.044Z,20
2018-11-22T14:00:00.878Z,20
2018-11-22T14:00:55.492Z,20
2018-11-22T14:01:56.234Z,20
2018-11-22T14:02:55.698Z,20
2018-11-22T14:03:55.444Z,20
2018-11-22T14:04:56.169Z,20
2018-11-22T14:05:55.891Z,20
2018-11-22T14:06:55.866Z,20
2018-11-22T14:07:56.134Z,20
2018-11-22T14:08:55.826Z,20
2018-11-22T14:09:55.823Z,20
2018-11-22T14:11:00.891Z,20
2018-11-22T14:11:55.772Z,20
2018-11-22T14:12:55.804Z,20
2018-11-22T14:13:55.477Z,20
2018-11-22T14:14:55.712Z,15
2018-11-22T14:15:55.437Z,15
2018-11-22T14:16:56.514Z,15
2018-11-22T14:17:55.659Z,15
2018-11-22T14:18:55.633Z,15
2018-11-22T14:19:55.619Z,20
2018-11-22T14:20:55.092Z,20
2018-11-22T14:21:55.569Z,20
2018-11-22T14:22:55.808Z,20
2018-11-22T14:23:55.535Z,20
2018-11-22T14:24:55.511Z,15
2018-11-22T14:25:58.451Z,15
2018-11-22T14:26:54.969Z,15
2018-11-22T14:27:55.201Z,15
2018-11-22T14:28:55.442Z,15
2018-11-22T14:29:55.410Z,15
2018-11-22T14:30:55.406Z,15
2018-11-22T14:31:55.371Z,10